sensor_id;sensor_type;location;lat;lon;timestamp;P1;durP1;ratioP1;P2;durP2;ratioP2
2570;SDS011;1295;51.130;6.732;2024-02-26T00:02:17;1.70;;;1.60;;
2570;SDS011;1295;51.130;6.732;2024-02-26T00:04:44;1.50;;;1.40;;
2570;SDS011;1295;51.130;6.732;2024-02-26T00:07:09;1.53;;;1.43;;
2570;SDS011;1295;51.130;6.732;2024-02-26T00:09:35;2.90;;;2.80;;
2570;SDS011;1295;51.130;6.732;2024-02-26T00:12:01;1.40;;;1.30;;
2570;SDS011;1295;51.130;6.732;2024-02-26T00:14:26;1.30;;;1.20;;
2570;SDS011;1295;51.130;6.732;2024-02-26T00:16:52;1.17;;;1.07;;
2570;SDS011;1295;51.130;6.732;2024-02-26T00:19:17;2.70;;;2.50;;
2570;SDS011;1295;51.130;6.732;2024-02-26T00:21:43;1.23;;;1.13;;
2570;SDS011;1295;51.130;6.732;2024-02-26T00:24:09;2.50;;;1.63;;
2570;SDS011;1295;51.130;6.732;2024-02-26T00:26:34;1.60;;;1.50;;
2570;SDS011;1295;51.130;6.732;2024-02-26T00:29:01;1.57;;;1.47;;
2570;SDS011;1295;51.130;6.732;2024-02-26T00:31:26;1.43;;;1.33;;
2570;SDS011;1295;51.130;6.732;2024-02-26T00:33:52;1.23;;;1.17;;
2570;SDS011;1295;51.130;6.732;2024-02-26T00:36:18;2.23;;;1.90;;
2570;SDS011;1295;51.130;6.732;2024-02-26T00:38:43;1.13;;;1.10;;
2570;SDS011;1295;51.130;6.732;2024-02-26T00:41:09;1.57;;;1.47;;
2570;SDS011;1295;51.130;6.732;2024-02-26T00:43:34;1.97;;;1.20;;
2570;SDS011;1295;51.130;6.732;2024-02-26T00:46:01;3.20;;;1.57;;
2570;SDS011;1295;51.130;6.732;2024-02-26T00:48:27;2.00;;;1.80;;
2570;SDS011;1295;51.130;6.732;2024-02-26T00:50:52;1.50;;;1.40;;
2570;SDS011;1295;51.130;6.732;2024-02-26T00:53:18;1.97;;;1.87;;
2570;SDS011;1295;51.130;6.732;2024-02-26T00:55:44;1.60;;;1.50;;
2570;SDS011;1295;51.130;6.732;2024-02-26T00:58:09;3.20;;;1.50;;
2570;SDS011;1295;51.130;6.732;2024-02-26T01:00:35;1.57;;;1.47;;
2570;SDS011;1295;51.130;6.732;2024-02-26T01:03:01;1.63;;;1.53;;
2570;SDS011;1295;51.130;6.732;2024-02-26T01:05:27;1.60;;;1.50;;
2570;SDS011;1295;51.130;6.732;2024-02-26T01:07:53;1.90;;;1.80;;
2570;SDS011;1295;51.130;6.732;2024-02-26T01:10:19;1.60;;;1.50;;
2570;SDS011;1295;51.130;6.732;2024-02-26T01:12:44;1.00;;;1.00;;
2570;SDS011;1295;51.130;6.732;2024-02-26T01:15:10;1.77;;;1.20;;
2570;SDS011;1295;51.130;6.732;2024-02-26T01:17:36;1.03;;;1.03;;
2570;SDS011;1295;51.130;6.732;2024-02-26T01:20:01;1.53;;;1.43;;
2570;SDS011;1295;51.130;6.732;2024-02-26T01:22:27;1.50;;;1.40;;
2570;SDS011;1295;51.130;6.732;2024-02-26T01:24:53;1.93;;;1.20;;
2570;SDS011;1295;51.130;6.732;2024-02-26T01:27:18;1.67;;;0.87;;
2570;SDS011;1295;51.130;6.732;2024-02-26T01:29:44;3.27;;;1.17;;
2570;SDS011;1295;51.130;6.732;2024-02-26T01:32:10;2.00;;;1.60;;
2570;SDS011;1295;51.130;6.732;2024-02-26T01:34:35;2.03;;;1.27;;
2570;SDS011;1295;51.130;6.732;2024-02-26T01:37:02;1.53;;;1.30;;
2570;SDS011;1295;51.130;6.732;2024-02-26T01:39:27;1.40;;;1.30;;
2570;SDS011;1295;51.130;6.732;2024-02-26T01:41:53;1.87;;;1.13;;
2570;SDS011;1295;51.130;6.732;2024-02-26T01:44:19;0.90;;;0.83;;
2570;SDS011;1295;51.130;6.732;2024-02-26T01:46:44;1.10;;;1.10;;
2570;SDS011;1295;51.130;6.732;2024-02-26T01:49:11;0.80;;;0.80;;
2570;SDS011;1295;51.130;6.732;2024-02-26T01:51:35;1.30;;;1.20;;
2570;SDS011;1295;51.130;6.732;2024-02-26T01:54:02;0.87;;;0.87;;
2570;SDS011;1295;51.130;6.732;2024-02-26T01:56:27;1.10;;;1.10;;
2570;SDS011;1295;51.130;6.732;2024-02-26T01:58:52;1.13;;;0.90;;
2570;SDS011;1295;51.130;6.732;2024-02-26T02:01:18;2.13;;;1.20;;
2570;SDS011;1295;51.130;6.732;2024-02-26T02:03:44;1.30;;;1.20;;
2570;SDS011;1295;51.130;6.732;2024-02-26T02:06:11;1.10;;;0.97;;
2570;SDS011;1295;51.130;6.732;2024-02-26T02:08:36;1.00;;;1.00;;
2570;SDS011;1295;51.130;6.732;2024-02-26T02:11:02;1.17;;;1.00;;
2570;SDS011;1295;51.130;6.732;2024-02-26T02:13:35;0.80;;;0.80;;
2570;SDS011;1295;51.130;6.732;2024-02-26T02:16:01;2.50;;;2.07;;
2570;SDS011;1295;51.130;6.732;2024-02-26T02:18:27;2.20;;;1.00;;
2570;SDS011;1295;51.130;6.732;2024-02-26T02:20:53;1.23;;;1.13;;
2570;SDS011;1295;51.130;6.732;2024-02-26T02:23:19;0.80;;;0.80;;
2570;SDS011;1295;51.130;6.732;2024-02-26T02:25:44;0.90;;;0.90;;
2570;SDS011;1295;51.130;6.732;2024-02-26T02:28:10;1.13;;;0.80;;
2570;SDS011;1295;51.130;6.732;2024-02-26T02:30:35;1.43;;;0.80;;
2570;SDS011;1295;51.130;6.732;2024-02-26T02:33:01;0.80;;;0.70;;
2570;SDS011;1295;51.130;6.732;2024-02-26T02:35:27;1.43;;;1.33;;
2570;SDS011;1295;51.130;6.732;2024-02-26T02:37:52;3.03;;;0.80;;
2570;SDS011;1295;51.130;6.732;2024-02-26T02:40:18;1.17;;;1.17;;
2570;SDS011;1295;51.130;6.732;2024-02-26T02:42:44;0.90;;;0.80;;
2570;SDS011;1295;51.130;6.732;2024-02-26T02:45:09;0.83;;;0.83;;
2570;SDS011;1295;51.130;6.732;2024-02-26T02:47:36;0.90;;;0.90;;
2570;SDS011;1295;51.130;6.732;2024-02-26T02:50:01;1.47;;;0.67;;
2570;SDS011;1295;51.130;6.732;2024-02-26T02:52:28;1.23;;;1.13;;
2570;SDS011;1295;51.130;6.732;2024-02-26T02:54:53;1.93;;;0.70;;
2570;SDS011;1295;51.130;6.732;2024-02-26T02:57:27;1.40;;;0.97;;
2570;SDS011;1295;51.130;6.732;2024-02-26T02:59:53;1.20;;;0.90;;
2570;SDS011;1295;51.130;6.732;2024-02-26T03:02:18;0.80;;;0.80;;
2570;SDS011;1295;51.130;6.732;2024-02-26T03:04:44;1.63;;;1.20;;
2570;SDS011;1295;51.130;6.732;2024-02-26T03:07:10;3.20;;;0.97;;
2570;SDS011;1295;51.130;6.732;2024-02-26T03:09:36;0.73;;;0.73;;
2570;SDS011;1295;51.130;6.732;2024-02-26T03:12:02;0.90;;;0.90;;
2570;SDS011;1295;51.130;6.732;2024-02-26T03:14:28;1.33;;;1.23;;
2570;SDS011;1295;51.130;6.732;2024-02-26T03:19:27;0.80;;;0.80;;
2570;SDS011;1295;51.130;6.732;2024-02-26T03:21:52;0.77;;;0.73;;
2570;SDS011;1295;51.130;6.732;2024-02-26T03:24:18;1.30;;;0.90;;
2570;SDS011;1295;51.130;6.732;2024-02-26T03:26:50;1.10;;;0.93;;
2570;SDS011;1295;51.130;6.732;2024-02-26T03:29:16;1.87;;;1.17;;
2570;SDS011;1295;51.130;6.732;2024-02-26T03:31:42;1.00;;;0.80;;
2570;SDS011;1295;51.130;6.732;2024-02-26T03:34:08;1.30;;;1.10;;
2570;SDS011;1295;51.130;6.732;2024-02-26T03:36:40;1.00;;;1.00;;
2570;SDS011;1295;51.130;6.732;2024-02-26T03:39:05;1.07;;;0.90;;
2570;SDS011;1295;51.130;6.732;2024-02-26T03:41:31;1.30;;;1.20;;
2570;SDS011;1295;51.130;6.732;2024-02-26T03:43:56;1.47;;;1.33;;
2570;SDS011;1295;51.130;6.732;2024-02-26T03:46:22;1.20;;;1.20;;
2570;SDS011;1295;51.130;6.732;2024-02-26T03:48:47;2.70;;;1.13;;
2570;SDS011;1295;51.130;6.732;2024-02-26T03:51:14;5.60;;;2.40;;
2570;SDS011;1295;51.130;6.732;2024-02-26T03:53:39;1.10;;;1.00;;
2570;SDS011;1295;51.130;6.732;2024-02-26T03:56:05;1.10;;;1.00;;
2570;SDS011;1295;51.130;6.732;2024-02-26T03:58:32;0.87;;;0.87;;
2570;SDS011;1295;51.130;6.732;2024-02-26T04:00:59;1.90;;;1.23;;
2570;SDS011;1295;51.130;6.732;2024-02-26T04:03:24;1.23;;;1.13;;
2570;SDS011;1295;51.130;6.732;2024-02-26T04:05:51;0.90;;;0.90;;
2570;SDS011;1295;51.130;6.732;2024-02-26T04:08:16;1.20;;;1.10;;
2570;SDS011;1295;51.130;6.732;2024-02-26T04:10:42;1.33;;;1.27;;
2570;SDS011;1295;51.130;6.732;2024-02-26T04:13:08;0.80;;;0.80;;
2570;SDS011;1295;51.130;6.732;2024-02-26T04:15:33;1.10;;;1.10;;
2570;SDS011;1295;51.130;6.732;2024-02-26T04:17:59;1.40;;;1.30;;
2570;SDS011;1295;51.130;6.732;2024-02-26T04:20:24;1.23;;;1.13;;
2570;SDS011;1295;51.130;6.732;2024-02-26T04:22:50;1.70;;;1.47;;
2570;SDS011;1295;51.130;6.732;2024-02-26T04:25:16;1.53;;;1.43;;
2570;SDS011;1295;51.130;6.732;2024-02-26T04:27:41;1.30;;;1.20;;
2570;SDS011;1295;51.130;6.732;2024-02-26T04:30:07;1.30;;;1.20;;
2570;SDS011;1295;51.130;6.732;2024-02-26T04:32:33;1.70;;;1.60;;
2570;SDS011;1295;51.130;6.732;2024-02-26T04:34:59;1.47;;;1.37;;
2570;SDS011;1295;51.130;6.732;2024-02-26T04:37:24;1.40;;;1.37;;
2570;SDS011;1295;51.130;6.732;2024-02-26T04:39:50;1.33;;;1.23;;
2570;SDS011;1295;51.130;6.732;2024-02-26T04:42:16;1.63;;;1.53;;
2570;SDS011;1295;51.130;6.732;2024-02-26T04:44:42;1.40;;;1.30;;
2570;SDS011;1295;51.130;6.732;2024-02-26T04:47:08;1.20;;;1.10;;
2570;SDS011;1295;51.130;6.732;2024-02-26T04:49:33;1.27;;;1.17;;
2570;SDS011;1295;51.130;6.732;2024-02-26T04:51:59;0.90;;;0.80;;
2570;SDS011;1295;51.130;6.732;2024-02-26T04:54:24;1.70;;;1.60;;
2570;SDS011;1295;51.130;6.732;2024-02-26T04:56:50;2.30;;;1.17;;
2570;SDS011;1295;51.130;6.732;2024-02-26T04:59:16;1.60;;;1.50;;
2570;SDS011;1295;51.130;6.732;2024-02-26T05:01:41;1.57;;;1.47;;
2570;SDS011;1295;51.130;6.732;2024-02-26T05:04:07;1.10;;;1.00;;
2570;SDS011;1295;51.130;6.732;2024-02-26T05:06:32;1.50;;;1.40;;
2570;SDS011;1295;51.130;6.732;2024-02-26T05:08:58;1.40;;;1.40;;
2570;SDS011;1295;51.130;6.732;2024-02-26T05:11:24;2.10;;;2.00;;
2570;SDS011;1295;51.130;6.732;2024-02-26T05:13:49;1.53;;;1.43;;
2570;SDS011;1295;51.130;6.732;2024-02-26T05:16:15;1.70;;;1.60;;
2570;SDS011;1295;51.130;6.732;2024-02-26T05:18:40;1.37;;;1.37;;
2570;SDS011;1295;51.130;6.732;2024-02-26T05:21:06;1.40;;;1.30;;
2570;SDS011;1295;51.130;6.732;2024-02-26T05:23:32;1.30;;;1.20;;
2570;SDS011;1295;51.130;6.732;2024-02-26T05:25:58;2.73;;;2.50;;
2570;SDS011;1295;51.130;6.732;2024-02-26T05:28:23;1.90;;;1.80;;
2570;SDS011;1295;51.130;6.732;2024-02-26T05:30:49;1.30;;;1.30;;
2570;SDS011;1295;51.130;6.732;2024-02-26T05:33:14;1.73;;;1.63;;
2570;SDS011;1295;51.130;6.732;2024-02-26T05:35:40;1.57;;;1.47;;
2570;SDS011;1295;51.130;6.732;2024-02-26T05:38:06;1.80;;;1.70;;
2570;SDS011;1295;51.130;6.732;2024-02-26T05:40:31;1.40;;;1.30;;
2570;SDS011;1295;51.130;6.732;2024-02-26T05:42:58;1.90;;;1.80;;
2570;SDS011;1295;51.130;6.732;2024-02-26T05:45:23;2.20;;;1.80;;
2570;SDS011;1295;51.130;6.732;2024-02-26T05:47:49;1.70;;;1.60;;
2570;SDS011;1295;51.130;6.732;2024-02-26T05:50:14;2.07;;;1.87;;
2570;SDS011;1295;51.130;6.732;2024-02-26T05:52:40;1.60;;;1.50;;
2570;SDS011;1295;51.130;6.732;2024-02-26T05:55:06;1.63;;;1.53;;
2570;SDS011;1295;51.130;6.732;2024-02-26T05:57:33;1.87;;;1.77;;
2570;SDS011;1295;51.130;6.732;2024-02-26T05:59:59;1.30;;;1.30;;
2570;SDS011;1295;51.130;6.732;2024-02-26T06:02:25;2.23;;;2.13;;
2570;SDS011;1295;51.130;6.732;2024-02-26T06:04:51;3.30;;;2.50;;
2570;SDS011;1295;51.130;6.732;2024-02-26T06:07:17;1.50;;;1.40;;
2570;SDS011;1295;51.130;6.732;2024-02-26T06:09:42;2.43;;;2.33;;
2570;SDS011;1295;51.130;6.732;2024-02-26T06:12:08;1.70;;;1.60;;
2570;SDS011;1295;51.130;6.732;2024-02-26T06:14:34;6.07;;;1.53;;
2570;SDS011;1295;51.130;6.732;2024-02-26T06:17:00;2.40;;;2.20;;
2570;SDS011;1295;51.130;6.732;2024-02-26T06:19:26;1.53;;;1.43;;
2570;SDS011;1295;51.130;6.732;2024-02-26T06:21:52;2.10;;;2.00;;
2570;SDS011;1295;51.130;6.732;2024-02-26T06:24:18;2.10;;;2.00;;
2570;SDS011;1295;51.130;6.732;2024-02-26T06:26:44;2.03;;;1.87;;
2570;SDS011;1295;51.130;6.732;2024-02-26T06:29:10;2.60;;;2.50;;
2570;SDS011;1295;51.130;6.732;2024-02-26T06:31:35;2.90;;;2.80;;
2570;SDS011;1295;51.130;6.732;2024-02-26T06:34:01;2.10;;;2.00;;
2570;SDS011;1295;51.130;6.732;2024-02-26T06:36:26;3.40;;;3.30;;
2570;SDS011;1295;51.130;6.732;2024-02-26T06:38:52;2.70;;;2.60;;
2570;SDS011;1295;51.130;6.732;2024-02-26T06:41:18;2.70;;;2.50;;
2570;SDS011;1295;51.130;6.732;2024-02-26T06:43:43;2.30;;;2.07;;
2570;SDS011;1295;51.130;6.732;2024-02-26T06:46:09;2.57;;;2.37;;
2570;SDS011;1295;51.130;6.732;2024-02-26T06:48:35;1.00;;;1.00;;
2570;SDS011;1295;51.130;6.732;2024-02-26T06:51:02;2.63;;;2.53;;
2570;SDS011;1295;51.130;6.732;2024-02-26T06:53:28;2.40;;;2.30;;
2570;SDS011;1295;51.130;6.732;2024-02-26T06:55:53;2.80;;;2.63;;
2570;SDS011;1295;51.130;6.732;2024-02-26T06:58:20;3.23;;;3.03;;
2570;SDS011;1295;51.130;6.732;2024-02-26T07:00:45;2.67;;;2.57;;
2570;SDS011;1295;51.130;6.732;2024-02-26T07:03:11;2.47;;;1.93;;
2570;SDS011;1295;51.130;6.732;2024-02-26T07:05:37;1.53;;;1.43;;
2570;SDS011;1295;51.130;6.732;2024-02-26T07:08:02;2.47;;;2.30;;
2570;SDS011;1295;51.130;6.732;2024-02-26T07:10:29;2.50;;;2.30;;
2570;SDS011;1295;51.130;6.732;2024-02-26T07:12:55;3.87;;;3.50;;
2570;SDS011;1295;51.130;6.732;2024-02-26T07:15:21;2.73;;;2.60;;
2570;SDS011;1295;51.130;6.732;2024-02-26T07:17:46;2.80;;;2.70;;
2570;SDS011;1295;51.130;6.732;2024-02-26T07:20:12;3.07;;;2.97;;
2570;SDS011;1295;51.130;6.732;2024-02-26T07:22:38;2.47;;;2.30;;
2570;SDS011;1295;51.130;6.732;2024-02-26T07:25:03;3.83;;;3.50;;
2570;SDS011;1295;51.130;6.732;2024-02-26T07:27:36;1.80;;;1.70;;
2570;SDS011;1295;51.130;6.732;2024-02-26T07:30:02;4.47;;;3.30;;
2570;SDS011;1295;51.130;6.732;2024-02-26T07:32:29;4.13;;;3.80;;
2570;SDS011;1295;51.130;6.732;2024-02-26T07:34:54;3.30;;;3.03;;
2570;SDS011;1295;51.130;6.732;2024-02-26T07:37:20;3.77;;;3.33;;
2570;SDS011;1295;51.130;6.732;2024-02-26T07:39:45;5.23;;;4.80;;
2570;SDS011;1295;51.130;6.732;2024-02-26T07:42:11;3.10;;;2.90;;
2570;SDS011;1295;51.130;6.732;2024-02-26T07:44:37;2.50;;;2.40;;
2570;SDS011;1295;51.130;6.732;2024-02-26T07:47:02;3.80;;;3.00;;
2570;SDS011;1295;51.130;6.732;2024-02-26T07:49:28;2.83;;;2.63;;
2570;SDS011;1295;51.130;6.732;2024-02-26T07:51:54;2.77;;;2.50;;
2570;SDS011;1295;51.130;6.732;2024-02-26T07:54:19;3.20;;;3.00;;
2570;SDS011;1295;51.130;6.732;2024-02-26T07:56:45;10.00;;;2.10;;
2570;SDS011;1295;51.130;6.732;2024-02-26T07:59:11;3.23;;;3.13;;
2570;SDS011;1295;51.130;6.732;2024-02-26T08:01:36;1.43;;;1.40;;
2570;SDS011;1295;51.130;6.732;2024-02-26T08:04:03;3.00;;;2.90;;
2570;SDS011;1295;51.130;6.732;2024-02-26T08:06:29;6.20;;;3.03;;
2570;SDS011;1295;51.130;6.732;2024-02-26T08:08:55;3.13;;;2.83;;
2570;SDS011;1295;51.130;6.732;2024-02-26T08:11:21;3.60;;;3.30;;
2570;SDS011;1295;51.130;6.732;2024-02-26T08:13:47;2.50;;;2.40;;
2570;SDS011;1295;51.130;6.732;2024-02-26T08:37:29;3.00;;;2.60;;
2570;SDS011;1295;51.130;6.732;2024-02-26T08:39:55;2.20;;;2.00;;
2570;SDS011;1295;51.130;6.732;2024-02-26T08:42:20;3.40;;;2.47;;
2570;SDS011;1295;51.130;6.732;2024-02-26T08:44:46;3.90;;;3.17;;
2570;SDS011;1295;51.130;6.732;2024-02-26T08:47:12;2.17;;;2.07;;
2570;SDS011;1295;51.130;6.732;2024-02-26T08:51:09;2.80;;;2.70;;
2570;SDS011;1295;51.130;6.732;2024-02-26T08:53:35;5.33;;;2.80;;
2570;SDS011;1295;51.130;6.732;2024-02-26T08:56:01;1.80;;;1.70;;
2570;SDS011;1295;51.130;6.732;2024-02-26T08:58:27;2.47;;;2.23;;
2570;SDS011;1295;51.130;6.732;2024-02-26T09:00:53;3.53;;;2.60;;
2570;SDS011;1295;51.130;6.732;2024-02-26T09:03:18;4.83;;;2.30;;
2570;SDS011;1295;51.130;6.732;2024-02-26T09:05:44;4.20;;;3.83;;
2570;SDS011;1295;51.130;6.732;2024-02-26T09:08:10;2.50;;;2.30;;
2570;SDS011;1295;51.130;6.732;2024-02-26T09:10:35;3.13;;;2.07;;
2570;SDS011;1295;51.130;6.732;2024-02-26T09:13:01;3.87;;;3.67;;
2570;SDS011;1295;51.130;6.732;2024-02-26T09:15:27;4.20;;;3.23;;
2570;SDS011;1295;51.130;6.732;2024-02-26T09:17:52;3.10;;;2.90;;
2570;SDS011;1295;51.130;6.732;2024-02-26T09:20:18;3.50;;;2.53;;
2570;SDS011;1295;51.130;6.732;2024-02-26T09:22:44;3.83;;;2.77;;
2570;SDS011;1295;51.130;6.732;2024-02-26T09:25:10;3.73;;;2.80;;
2570;SDS011;1295;51.130;6.732;2024-02-26T09:27:35;2.93;;;2.63;;
2570;SDS011;1295;51.130;6.732;2024-02-26T09:30:01;3.10;;;2.53;;
2570;SDS011;1295;51.130;6.732;2024-02-26T09:32:27;4.33;;;4.03;;
2570;SDS011;1295;51.130;6.732;2024-02-26T09:34:53;3.13;;;2.93;;
2570;SDS011;1295;51.130;6.732;2024-02-26T09:37:19;3.50;;;3.30;;
2570;SDS011;1295;51.130;6.732;2024-02-26T09:39:44;2.40;;;2.00;;
2570;SDS011;1295;51.130;6.732;2024-02-26T09:42:10;3.70;;;3.40;;
2570;SDS011;1295;51.130;6.732;2024-02-26T09:44:36;4.20;;;3.50;;
2570;SDS011;1295;51.130;6.732;2024-02-26T09:47:02;4.30;;;3.93;;
2570;SDS011;1295;51.130;6.732;2024-02-26T09:49:28;3.83;;;3.53;;
2570;SDS011;1295;51.130;6.732;2024-02-26T09:51:53;3.00;;;2.90;;
2570;SDS011;1295;51.130;6.732;2024-02-26T09:54:19;3.27;;;3.07;;
2570;SDS011;1295;51.130;6.732;2024-02-26T09:56:45;4.20;;;3.90;;
2570;SDS011;1295;51.130;6.732;2024-02-26T09:59:13;4.20;;;3.90;;
2570;SDS011;1295;51.130;6.732;2024-02-26T10:01:37;3.80;;;3.53;;
2570;SDS011;1295;51.130;6.732;2024-02-26T10:04:02;3.90;;;3.60;;
2570;SDS011;1295;51.130;6.732;2024-02-26T10:06:28;4.00;;;3.33;;
2570;SDS011;1295;51.130;6.732;2024-02-26T10:08:54;2.10;;;2.00;;
2570;SDS011;1295;51.130;6.732;2024-02-26T10:11:20;3.87;;;3.57;;
2570;SDS011;1295;51.130;6.732;2024-02-26T10:13:45;2.37;;;2.27;;
2570;SDS011;1295;51.130;6.732;2024-02-26T10:16:12;6.87;;;3.30;;
2570;SDS011;1295;51.130;6.732;2024-02-26T10:18:44;2.37;;;2.27;;
2570;SDS011;1295;51.130;6.732;2024-02-26T10:21:10;5.50;;;2.07;;
2570;SDS011;1295;51.130;6.732;2024-02-26T10:23:35;2.67;;;2.47;;
2570;SDS011;1295;51.130;6.732;2024-02-26T10:26:01;2.83;;;2.63;;
2570;SDS011;1295;51.130;6.732;2024-02-26T10:28:27;2.47;;;2.37;;
2570;SDS011;1295;51.130;6.732;2024-02-26T10:30:52;3.30;;;2.57;;
2570;SDS011;1295;51.130;6.732;2024-02-26T10:33:18;2.70;;;2.50;;
2570;SDS011;1295;51.130;6.732;2024-02-26T10:35:45;4.47;;;2.37;;
2570;SDS011;1295;51.130;6.732;2024-02-26T10:38:10;2.03;;;1.93;;
2570;SDS011;1295;51.130;6.732;2024-02-26T10:40:36;2.43;;;2.33;;
2570;SDS011;1295;51.130;6.732;2024-02-26T10:43:02;2.50;;;2.40;;
2570;SDS011;1295;51.130;6.732;2024-02-26T10:45:29;2.50;;;2.40;;
2570;SDS011;1295;51.130;6.732;2024-02-26T10:47:54;2.40;;;2.30;;
2570;SDS011;1295;51.130;6.732;2024-02-26T10:50:20;3.10;;;3.00;;
2570;SDS011;1295;51.130;6.732;2024-02-26T10:52:46;2.80;;;2.30;;
2570;SDS011;1295;51.130;6.732;2024-02-26T10:55:15;3.77;;;3.47;;
2570;SDS011;1295;51.130;6.732;2024-02-26T10:57:40;2.80;;;2.60;;
2570;SDS011;1295;51.130;6.732;2024-02-26T11:00:05;2.40;;;2.30;;
2570;SDS011;1295;51.130;6.732;2024-02-26T11:02:33;3.23;;;3.03;;
2570;SDS011;1295;51.130;6.732;2024-02-26T11:05:01;3.33;;;3.13;;
2570;SDS011;1295;51.130;6.732;2024-02-26T11:07:27;4.50;;;4.10;;
2570;SDS011;1295;51.130;6.732;2024-02-26T11:09:53;2.50;;;2.30;;
2570;SDS011;1295;51.130;6.732;2024-02-26T11:12:19;3.50;;;3.40;;
2570;SDS011;1295;51.130;6.732;2024-02-26T11:14:46;3.63;;;2.57;;
2570;SDS011;1295;51.130;6.732;2024-02-26T11:17:11;2.33;;;2.23;;
2570;SDS011;1295;51.130;6.732;2024-02-26T11:19:38;2.90;;;2.70;;
2570;SDS011;1295;51.130;6.732;2024-02-26T11:22:04;1.97;;;1.77;;
2570;SDS011;1295;51.130;6.732;2024-02-26T11:24:30;0.97;;;0.97;;
2570;SDS011;1295;51.130;6.732;2024-02-26T11:26:57;3.30;;;3.10;;
2570;SDS011;1295;51.130;6.732;2024-02-26T11:29:21;4.90;;;4.60;;
2570;SDS011;1295;51.130;6.732;2024-02-26T11:31:47;4.53;;;4.17;;
2570;SDS011;1295;51.130;6.732;2024-02-26T11:34:13;2.60;;;2.50;;
2570;SDS011;1295;51.130;6.732;2024-02-26T11:36:38;3.40;;;3.20;;
2570;SDS011;1295;51.130;6.732;2024-02-26T11:39:04;3.00;;;2.80;;
2570;SDS011;1295;51.130;6.732;2024-02-26T11:41:30;3.17;;;2.93;;
2570;SDS011;1295;51.130;6.732;2024-02-26T11:43:58;3.90;;;3.60;;
2570;SDS011;1295;51.130;6.732;2024-02-26T11:46:25;3.57;;;3.37;;
2570;SDS011;1295;51.130;6.732;2024-02-26T11:48:51;3.30;;;3.00;;
2570;SDS011;1295;51.130;6.732;2024-02-26T11:51:16;3.70;;;3.40;;
2570;SDS011;1295;51.130;6.732;2024-02-26T11:53:45;4.70;;;3.50;;
2570;SDS011;1295;51.130;6.732;2024-02-26T11:56:12;4.67;;;3.20;;
2570;SDS011;1295;51.130;6.732;2024-02-26T11:58:39;3.73;;;3.53;;
2570;SDS011;1295;51.130;6.732;2024-02-26T12:01:05;3.17;;;3.07;;
2570;SDS011;1295;51.130;6.732;2024-02-26T12:03:31;4.10;;;3.70;;
2570;SDS011;1295;51.130;6.732;2024-02-26T12:05:56;3.63;;;3.43;;
2570;SDS011;1295;51.130;6.732;2024-02-26T12:08:22;3.40;;;3.20;;
2570;SDS011;1295;51.130;6.732;2024-02-26T12:10:48;3.20;;;2.93;;
2570;SDS011;1295;51.130;6.732;2024-02-26T12:13:14;3.30;;;3.00;;
2570;SDS011;1295;51.130;6.732;2024-02-26T12:15:42;5.13;;;4.83;;
2570;SDS011;1295;51.130;6.732;2024-02-26T12:18:08;2.90;;;2.67;;
2570;SDS011;1295;51.130;6.732;2024-02-26T12:20:33;4.60;;;4.30;;
2570;SDS011;1295;51.130;6.732;2024-02-26T12:22:58;3.07;;;2.80;;
2570;SDS011;1295;51.130;6.732;2024-02-26T12:25:25;3.30;;;3.10;;
2570;SDS011;1295;51.130;6.732;2024-02-26T12:27:52;3.90;;;3.60;;
2570;SDS011;1295;51.130;6.732;2024-02-26T12:30:17;5.07;;;4.53;;
2570;SDS011;1295;51.130;6.732;2024-02-26T12:32:43;5.87;;;5.40;;
2570;SDS011;1295;51.130;6.732;2024-02-26T12:35:08;4.70;;;4.40;;
2570;SDS011;1295;51.130;6.732;2024-02-26T12:37:34;4.00;;;2.87;;
2570;SDS011;1295;51.130;6.732;2024-02-26T12:39:59;2.63;;;2.53;;
2570;SDS011;1295;51.130;6.732;2024-02-26T12:42:25;4.73;;;4.43;;
2570;SDS011;1295;51.130;6.732;2024-02-26T12:44:52;5.37;;;5.17;;
2570;SDS011;1295;51.130;6.732;2024-02-26T12:47:17;3.97;;;3.67;;
2570;SDS011;1295;51.130;6.732;2024-02-26T12:49:43;3.23;;;3.03;;
2570;SDS011;1295;51.130;6.732;2024-02-26T12:52:08;4.87;;;4.57;;
2570;SDS011;1295;51.130;6.732;2024-02-26T12:54:34;3.03;;;2.83;;
2570;SDS011;1295;51.130;6.732;2024-02-26T12:57:00;5.60;;;5.23;;
2570;SDS011;1295;51.130;6.732;2024-02-26T12:59:25;5.50;;;5.20;;
2570;SDS011;1295;51.130;6.732;2024-02-26T13:01:51;7.40;;;6.50;;
2570;SDS011;1295;51.130;6.732;2024-02-26T13:04:16;6.03;;;5.60;;
2570;SDS011;1295;51.130;6.732;2024-02-26T13:06:42;4.37;;;4.13;;
2570;SDS011;1295;51.130;6.732;2024-02-26T13:09:08;7.10;;;5.90;;
2570;SDS011;1295;51.130;6.732;2024-02-26T13:11:33;4.63;;;4.17;;
2570;SDS011;1295;51.130;6.732;2024-02-26T13:13:59;6.97;;;6.43;;
2570;SDS011;1295;51.130;6.732;2024-02-26T13:16:25;6.20;;;5.70;;
2570;SDS011;1295;51.130;6.732;2024-02-26T13:18:50;6.07;;;5.50;;
2570;SDS011;1295;51.130;6.732;2024-02-26T13:21:16;5.63;;;5.20;;
2570;SDS011;1295;51.130;6.732;2024-02-26T13:23:41;6.90;;;4.90;;
2570;SDS011;1295;51.130;6.732;2024-02-26T13:26:07;2.97;;;2.80;;
2570;SDS011;1295;51.130;6.732;2024-02-26T13:28:33;7.90;;;7.03;;
2570;SDS011;1295;51.130;6.732;2024-02-26T13:30:58;9.57;;;8.07;;
2570;SDS011;1295;51.130;6.732;2024-02-26T13:33:24;9.10;;;8.20;;
2570;SDS011;1295;51.130;6.732;2024-02-26T13:35:50;8.60;;;7.90;;
2570;SDS011;1295;51.130;6.732;2024-02-26T13:38:15;7.03;;;6.50;;
2570;SDS011;1295;51.130;6.732;2024-02-26T13:40:40;6.20;;;5.87;;
2570;SDS011;1295;51.130;6.732;2024-02-26T13:43:06;7.73;;;6.90;;
2570;SDS011;1295;51.130;6.732;2024-02-26T13:45:34;12.13;;;9.00;;
2570;SDS011;1295;51.130;6.732;2024-02-26T13:48:01;8.60;;;7.77;;
2570;SDS011;1295;51.130;6.732;2024-02-26T13:50:25;8.60;;;8.00;;
2570;SDS011;1295;51.130;6.732;2024-02-26T13:52:50;7.70;;;7.00;;
2570;SDS011;1295;51.130;6.732;2024-02-26T13:55:16;7.97;;;7.40;;
2570;SDS011;1295;51.130;6.732;2024-02-26T13:57:41;8.00;;;7.40;;
2570;SDS011;1295;51.130;6.732;2024-02-26T14:00:07;9.33;;;8.00;;
2570;SDS011;1295;51.130;6.732;2024-02-26T14:02:34;10.33;;;9.37;;
2570;SDS011;1295;51.130;6.732;2024-02-26T14:04:59;8.47;;;7.90;;
2570;SDS011;1295;51.130;6.732;2024-02-26T14:07:25;7.70;;;7.03;;
2570;SDS011;1295;51.130;6.732;2024-02-26T14:09:50;8.60;;;7.90;;
2570;SDS011;1295;51.130;6.732;2024-02-26T14:12:16;8.90;;;8.10;;
2570;SDS011;1295;51.130;6.732;2024-02-26T14:14:42;8.87;;;7.23;;
2570;SDS011;1295;51.130;6.732;2024-02-26T14:17:08;9.03;;;8.23;;
2570;SDS011;1295;51.130;6.732;2024-02-26T14:19:34;8.47;;;7.80;;
2570;SDS011;1295;51.130;6.732;2024-02-26T14:22:00;8.97;;;8.23;;
2570;SDS011;1295;51.130;6.732;2024-02-26T14:24:25;8.97;;;8.07;;
2570;SDS011;1295;51.130;6.732;2024-02-26T14:26:51;10.27;;;9.37;;
2570;SDS011;1295;51.130;6.732;2024-02-26T14:29:18;10.00;;;9.10;;
2570;SDS011;1295;51.130;6.732;2024-02-26T14:31:58;11.03;;;8.73;;
2570;SDS011;1295;51.130;6.732;2024-02-26T14:34:24;10.13;;;8.90;;
2570;SDS011;1295;51.130;6.732;2024-02-26T14:36:50;7.10;;;6.60;;
2570;SDS011;1295;51.130;6.732;2024-02-26T14:39:15;11.50;;;8.10;;
2570;SDS011;1295;51.130;6.732;2024-02-26T14:41:41;7.70;;;7.20;;
2570;SDS011;1295;51.130;6.732;2024-02-26T14:44:07;9.87;;;8.00;;
2570;SDS011;1295;51.130;6.732;2024-02-26T14:46:33;29.53;;;8.83;;
2570;SDS011;1295;51.130;6.732;2024-02-26T14:48:58;9.00;;;7.20;;
2570;SDS011;1295;51.130;6.732;2024-02-26T14:51:24;10.53;;;8.57;;
2570;SDS011;1295;51.130;6.732;2024-02-26T14:53:50;9.67;;;8.90;;
2570;SDS011;1295;51.130;6.732;2024-02-26T14:56:15;8.87;;;8.17;;
2570;SDS011;1295;51.130;6.732;2024-02-26T14:58:41;9.87;;;9.00;;
2570;SDS011;1295;51.130;6.732;2024-02-26T15:01:06;12.50;;;11.40;;
2570;SDS011;1295;51.130;6.732;2024-02-26T15:03:32;19.97;;;9.70;;
2570;SDS011;1295;51.130;6.732;2024-02-26T15:05:58;9.40;;;7.87;;
2570;SDS011;1295;51.130;6.732;2024-02-26T15:08:23;11.23;;;9.77;;
2570;SDS011;1295;51.130;6.732;2024-02-26T15:10:49;10.70;;;9.90;;
2570;SDS011;1295;51.130;6.732;2024-02-26T15:13:15;10.77;;;7.80;;
2570;SDS011;1295;51.130;6.732;2024-02-26T15:15:40;9.90;;;9.10;;
2570;SDS011;1295;51.130;6.732;2024-02-26T15:18:06;10.57;;;9.47;;
2570;SDS011;1295;51.130;6.732;2024-02-26T15:20:32;10.43;;;9.40;;
2570;SDS011;1295;51.130;6.732;2024-02-26T15:22:58;9.13;;;8.33;;
2570;SDS011;1295;51.130;6.732;2024-02-26T15:25:24;11.00;;;9.97;;
2570;SDS011;1295;51.130;6.732;2024-02-26T15:27:50;9.37;;;8.57;;
2570;SDS011;1295;51.130;6.732;2024-02-26T15:30:15;9.20;;;8.40;;
2570;SDS011;1295;51.130;6.732;2024-02-26T15:32:41;10.33;;;9.40;;